sensor_id;sensor_type;location;lat;lon;timestamp;P1;durP1;ratioP1;P2;durP2;ratioP2
38717;SDS011;24468;52.128;9.278;2022-10-16T00:00:35;2.53;;;0.70;;
38717;SDS011;24468;52.128;9.278;2022-10-16T00:03:02;0.98;;;0.50;;
38717;SDS011;24468;52.128;9.278;2022-10-16T00:05:28;1.15;;;0.50;;
38717;SDS011;24468;52.128;9.278;2022-10-16T00:07:55;2.78;;;0.70;;
38717;SDS011;24468;52.128;9.278;2022-10-16T00:10:20;2.30;;;0.52;;
38717;SDS011;24468;52.128;9.278;2022-10-16T00:12:46;1.25;;;0.80;;
38717;SDS011;24468;52.128;9.278;2022-10-16T00:15:11;2.17;;;0.80;;
38717;SDS011;24468;52.128;9.278;2022-10-16T00:17:38;0.70;;;0.50;;
38717;SDS011;24468;52.128;9.278;2022-10-16T00:20:03;8.00;;;0.90;;
38717;SDS011;24468;52.128;9.278;2022-10-16T00:22:30;3.80;;;0.90;;
38717;SDS011;24468;52.128;9.278;2022-10-16T00:24:55;2.33;;;0.77;;
38717;SDS011;24468;52.128;9.278;2022-10-16T00:27:21;2.22;;;1.10;;
38717;SDS011;24468;52.128;9.278;2022-10-16T00:29:50;3.80;;;1.40;;
38717;SDS011;24468;52.128;9.278;2022-10-16T00:32:17;1.73;;;1.40;;
38717;SDS011;24468;52.128;9.278;2022-10-16T00:34:46;2.55;;;1.50;;
38717;SDS011;24468;52.128;9.278;2022-10-16T00:37:12;2.58;;;1.10;;
38717;SDS011;24468;52.128;9.278;2022-10-16T00:39:38;4.75;;;1.38;;
38717;SDS011;24468;52.128;9.278;2022-10-16T00:42:03;2.25;;;1.40;;
38717;SDS011;24468;52.128;9.278;2022-10-16T00:50:24;5.20;;;1.40;;
38717;SDS011;24468;52.128;9.278;2022-10-16T00:52:58;2.00;;;1.42;;
38717;SDS011;24468;52.128;9.278;2022-10-16T00:55:25;1.60;;;1.15;;
38717;SDS011;24468;52.128;9.278;2022-10-16T00:57:52;3.40;;;1.50;;
38717;SDS011;24468;52.128;9.278;2022-10-16T01:00:20;2.20;;;1.00;;
38717;SDS011;24468;52.128;9.278;2022-10-16T01:02:55;2.75;;;1.30;;
38717;SDS011;24468;52.128;9.278;2022-10-16T01:05:25;2.88;;;1.42;;
38717;SDS011;24468;52.128;9.278;2022-10-16T01:08:16;5.68;;;1.50;;
38717;SDS011;24468;52.128;9.278;2022-10-16T01:10:54;4.05;;;1.08;;
38717;SDS011;24468;52.128;9.278;2022-10-16T01:13:27;3.83;;;1.55;;
38717;SDS011;24468;52.128;9.278;2022-10-16T01:16:17;3.90;;;1.00;;
38717;SDS011;24468;52.128;9.278;2022-10-16T01:21:35;3.00;;;1.10;;
38717;SDS011;24468;52.128;9.278;2022-10-16T01:24:09;1.95;;;1.20;;
38717;SDS011;24468;52.128;9.278;2022-10-16T01:29:37;3.75;;;1.23;;
38717;SDS011;24468;52.128;9.278;2022-10-16T01:32:31;3.13;;;1.60;;
38717;SDS011;24468;52.128;9.278;2022-10-16T01:37:55;4.28;;;1.30;;
38717;SDS011;24468;52.128;9.278;2022-10-16T01:40:32;1.45;;;1.35;;
38717;SDS011;24468;52.128;9.278;2022-10-16T01:43:06;3.80;;;1.13;;
38717;SDS011;24468;52.128;9.278;2022-10-16T01:45:37;4.18;;;1.27;;
38717;SDS011;24468;52.128;9.278;2022-10-16T01:48:05;2.08;;;1.17;;
38717;SDS011;24468;52.128;9.278;2022-10-16T01:50:35;2.65;;;1.20;;
38717;SDS011;24468;52.128;9.278;2022-10-16T01:53:05;2.75;;;1.90;;
38717;SDS011;24468;52.128;9.278;2022-10-16T01:55:34;5.38;;;1.50;;
38717;SDS011;24468;52.128;9.278;2022-10-16T01:58:04;2.13;;;1.27;;
38717;SDS011;24468;52.128;9.278;2022-10-16T02:00:32;3.10;;;1.38;;
38717;SDS011;24468;52.128;9.278;2022-10-16T02:03:01;4.20;;;1.60;;
38717;SDS011;24468;52.128;9.278;2022-10-16T02:05:30;1.70;;;1.13;;
38717;SDS011;24468;52.128;9.278;2022-10-16T02:08:07;2.67;;;1.52;;
38717;SDS011;24468;52.128;9.278;2022-10-16T02:10:32;10.93;;;1.40;;
38717;SDS011;24468;52.128;9.278;2022-10-16T02:13:03;2.20;;;1.10;;
38717;SDS011;24468;52.128;9.278;2022-10-16T02:15:46;1.83;;;1.30;;
38717;SDS011;24468;52.128;9.278;2022-10-16T02:18:12;2.78;;;1.00;;
38717;SDS011;24468;52.128;9.278;2022-10-16T02:23:45;5.18;;;1.30;;
38717;SDS011;24468;52.128;9.278;2022-10-16T02:26:35;4.60;;;1.67;;
38717;SDS011;24468;52.128;9.278;2022-10-16T02:29:10;4.93;;;1.55;;
38717;SDS011;24468;52.128;9.278;2022-10-16T02:31:41;3.20;;;1.65;;
38717;SDS011;24468;52.128;9.278;2022-10-16T02:34:14;2.40;;;1.13;;
38717;SDS011;24468;52.128;9.278;2022-10-16T02:36:41;2.60;;;1.60;;
38717;SDS011;24468;52.128;9.278;2022-10-16T02:39:08;3.45;;;1.30;;
38717;SDS011;24468;52.128;9.278;2022-10-16T02:41:34;3.90;;;1.60;;
38717;SDS011;24468;52.128;9.278;2022-10-16T02:44:00;3.25;;;1.52;;
38717;SDS011;24468;52.128;9.278;2022-10-16T02:46:25;3.83;;;1.70;;
38717;SDS011;24468;52.128;9.278;2022-10-16T02:48:51;3.42;;;1.90;;
38717;SDS011;24468;52.128;9.278;2022-10-16T02:51:17;2.15;;;1.17;;
38717;SDS011;24468;52.128;9.278;2022-10-16T02:53:42;3.88;;;1.67;;
38717;SDS011;24468;52.128;9.278;2022-10-16T02:56:08;4.32;;;1.48;;
38717;SDS011;24468;52.128;9.278;2022-10-16T02:58:33;2.13;;;1.08;;
38717;SDS011;24468;52.128;9.278;2022-10-16T03:00:59;4.50;;;0.95;;
38717;SDS011;24468;52.128;9.278;2022-10-16T03:03:24;4.57;;;1.80;;
38717;SDS011;24468;52.128;9.278;2022-10-16T03:05:50;4.55;;;2.53;;
38717;SDS011;24468;52.128;9.278;2022-10-16T03:08:15;1.17;;;1.00;;
38717;SDS011;24468;52.128;9.278;2022-10-16T03:10:41;4.82;;;1.65;;
38717;SDS011;24468;52.128;9.278;2022-10-16T03:13:06;3.17;;;1.30;;
38717;SDS011;24468;52.128;9.278;2022-10-16T03:15:32;6.43;;;1.30;;
38717;SDS011;24468;52.128;9.278;2022-10-16T03:17:58;3.80;;;1.20;;
38717;SDS011;24468;52.128;9.278;2022-10-16T03:20:24;4.10;;;1.58;;
38717;SDS011;24468;52.128;9.278;2022-10-16T03:22:50;2.67;;;1.40;;
38717;SDS011;24468;52.128;9.278;2022-10-16T03:25:15;4.30;;;1.20;;
38717;SDS011;24468;52.128;9.278;2022-10-16T03:27:41;5.10;;;1.42;;
38717;SDS011;24468;52.128;9.278;2022-10-16T03:30:07;5.65;;;2.10;;
38717;SDS011;24468;52.128;9.278;2022-10-16T03:32:33;2.58;;;1.20;;
38717;SDS011;24468;52.128;9.278;2022-10-16T03:34:59;4.05;;;1.38;;
38717;SDS011;24468;52.128;9.278;2022-10-16T03:37:24;2.20;;;1.80;;
38717;SDS011;24468;52.128;9.278;2022-10-16T03:39:50;4.18;;;1.40;;
38717;SDS011;24468;52.128;9.278;2022-10-16T03:42:15;6.07;;;2.55;;
38717;SDS011;24468;52.128;9.278;2022-10-16T03:44:41;4.28;;;1.50;;
38717;SDS011;24468;52.128;9.278;2022-10-16T03:47:06;4.97;;;1.50;;
38717;SDS011;24468;52.128;9.278;2022-10-16T03:49:32;2.92;;;1.55;;
38717;SDS011;24468;52.128;9.278;2022-10-16T03:51:57;6.88;;;2.13;;
38717;SDS011;24468;52.128;9.278;2022-10-16T03:54:23;1.77;;;1.30;;
38717;SDS011;24468;52.128;9.278;2022-10-16T03:56:48;3.25;;;1.60;;
38717;SDS011;24468;52.128;9.278;2022-10-16T03:59:14;2.95;;;1.45;;
38717;SDS011;24468;52.128;9.278;2022-10-16T04:01:40;2.42;;;1.38;;
38717;SDS011;24468;52.128;9.278;2022-10-16T04:04:05;1.95;;;1.33;;
38717;SDS011;24468;52.128;9.278;2022-10-16T04:06:31;2.88;;;1.35;;
38717;SDS011;24468;52.128;9.278;2022-10-16T04:08:56;3.85;;;1.90;;
38717;SDS011;24468;52.128;9.278;2022-10-16T04:11:22;2.38;;;1.38;;
38717;SDS011;24468;52.128;9.278;2022-10-16T04:13:47;3.47;;;1.40;;
38717;SDS011;24468;52.128;9.278;2022-10-16T04:16:13;1.88;;;0.93;;
38717;SDS011;24468;52.128;9.278;2022-10-16T04:18:39;3.65;;;1.50;;
38717;SDS011;24468;52.128;9.278;2022-10-16T04:21:05;2.53;;;1.48;;
38717;SDS011;24468;52.128;9.278;2022-10-16T04:23:31;3.17;;;1.42;;
38717;SDS011;24468;52.128;9.278;2022-10-16T04:25:57;1.77;;;0.98;;
38717;SDS011;24468;52.128;9.278;2022-10-16T04:28:24;3.28;;;1.60;;
38717;SDS011;24468;52.128;9.278;2022-10-16T04:30:49;2.75;;;1.88;;
38717;SDS011;24468;52.128;9.278;2022-10-16T04:33:15;4.47;;;1.67;;
38717;SDS011;24468;52.128;9.278;2022-10-16T04:35:41;5.57;;;1.90;;
38717;SDS011;24468;52.128;9.278;2022-10-16T04:38:06;5.00;;;1.92;;
38717;SDS011;24468;52.128;9.278;2022-10-16T04:40:32;4.95;;;1.65;;
38717;SDS011;24468;52.128;9.278;2022-10-16T04:42:58;3.88;;;1.58;;
38717;SDS011;24468;52.128;9.278;2022-10-16T04:45:24;3.58;;;1.75;;
38717;SDS011;24468;52.128;9.278;2022-10-16T04:47:50;4.22;;;1.85;;
38717;SDS011;24468;52.128;9.278;2022-10-16T04:50:15;2.00;;;1.55;;
38717;SDS011;24468;52.128;9.278;2022-10-16T04:52:41;4.85;;;2.38;;
38717;SDS011;24468;52.128;9.278;2022-10-16T04:55:07;3.58;;;2.10;;
38717;SDS011;24468;52.128;9.278;2022-10-16T04:57:32;2.92;;;1.80;;
38717;SDS011;24468;52.128;9.278;2022-10-16T04:59:58;2.42;;;2.15;;
38717;SDS011;24468;52.128;9.278;2022-10-16T05:02:24;3.45;;;1.73;;
38717;SDS011;24468;52.128;9.278;2022-10-16T05:04:50;7.72;;;2.58;;
38717;SDS011;24468;52.128;9.278;2022-10-16T05:07:16;5.28;;;2.42;;
38717;SDS011;24468;52.128;9.278;2022-10-16T05:09:42;2.85;;;2.35;;
38717;SDS011;24468;52.128;9.278;2022-10-16T05:12:08;3.78;;;1.95;;
38717;SDS011;24468;52.128;9.278;2022-10-16T05:14:33;3.78;;;2.45;;
38717;SDS011;24468;52.128;9.278;2022-10-16T05:16:59;3.75;;;2.67;;
38717;SDS011;24468;52.128;9.278;2022-10-16T05:19:25;3.67;;;2.50;;
38717;SDS011;24468;52.128;9.278;2022-10-16T05:21:51;7.40;;;2.35;;
38717;SDS011;24468;52.128;9.278;2022-10-16T05:24:16;3.38;;;2.00;;
38717;SDS011;24468;52.128;9.278;2022-10-16T05:26:42;5.00;;;2.00;;
38717;SDS011;24468;52.128;9.278;2022-10-16T05:29:08;4.00;;;2.33;;
38717;SDS011;24468;52.128;9.278;2022-10-16T05:31:34;3.17;;;1.58;;
38717;SDS011;24468;52.128;9.278;2022-10-16T05:34:00;4.55;;;2.08;;
38717;SDS011;24468;52.128;9.278;2022-10-16T05:36:26;3.78;;;1.75;;
38717;SDS011;24468;52.128;9.278;2022-10-16T05:38:52;2.85;;;1.80;;
38717;SDS011;24468;52.128;9.278;2022-10-16T05:41:17;4.18;;;1.73;;
38717;SDS011;24468;52.128;9.278;2022-10-16T05:43:46;3.00;;;1.48;;
38717;SDS011;24468;52.128;9.278;2022-10-16T05:46:12;6.05;;;2.00;;
38717;SDS011;24468;52.128;9.278;2022-10-16T05:48:38;1.88;;;1.77;;
38717;SDS011;24468;52.128;9.278;2022-10-16T05:51:05;5.25;;;1.88;;
38717;SDS011;24468;52.128;9.278;2022-10-16T05:53:34;3.17;;;1.48;;
38717;SDS011;24468;52.128;9.278;2022-10-16T05:56:02;4.03;;;1.63;;
38717;SDS011;24468;52.128;9.278;2022-10-16T05:58:30;4.18;;;1.90;;
38717;SDS011;24468;52.128;9.278;2022-10-16T06:01:04;4.57;;;1.70;;
38717;SDS011;24468;52.128;9.278;2022-10-16T06:03:36;8.30;;;1.42;;
38717;SDS011;24468;52.128;9.278;2022-10-16T06:06:09;5.85;;;1.77;;
38717;SDS011;24468;52.128;9.278;2022-10-16T06:08:41;2.90;;;1.40;;
38717;SDS011;24468;52.128;9.278;2022-10-16T06:11:09;3.70;;;1.30;;
38717;SDS011;24468;52.128;9.278;2022-10-16T06:13:38;1.63;;;1.42;;
38717;SDS011;24468;52.128;9.278;2022-10-16T06:16:06;2.28;;;1.15;;
38717;SDS011;24468;52.128;9.278;2022-10-16T06:18:33;3.13;;;1.75;;
38717;SDS011;24468;52.128;9.278;2022-10-16T06:20:58;2.20;;;1.77;;
38717;SDS011;24468;52.128;9.278;2022-10-16T06:23:24;2.10;;;1.48;;
38717;SDS011;24468;52.128;9.278;2022-10-16T06:25:50;2.65;;;1.45;;
38717;SDS011;24468;52.128;9.278;2022-10-16T06:28:16;2.17;;;1.30;;
38717;SDS011;24468;52.128;9.278;2022-10-16T06:30:42;1.80;;;1.48;;
38717;SDS011;24468;52.128;9.278;2022-10-16T06:33:11;2.00;;;1.30;;
38717;SDS011;24468;52.128;9.278;2022-10-16T06:35:37;2.70;;;1.38;;
38717;SDS011;24468;52.128;9.278;2022-10-16T06:38:02;1.55;;;1.38;;
38717;SDS011;24468;52.128;9.278;2022-10-16T06:40:28;3.72;;;1.38;;
38717;SDS011;24468;52.128;9.278;2022-10-16T06:42:56;5.25;;;1.52;;
38717;SDS011;24468;52.128;9.278;2022-10-16T06:45:22;3.35;;;1.50;;
38717;SDS011;24468;52.128;9.278;2022-10-16T06:47:48;5.50;;;1.60;;
38717;SDS011;24468;52.128;9.278;2022-10-16T06:50:13;3.17;;;1.60;;
38717;SDS011;24468;52.128;9.278;2022-10-16T06:52:39;3.28;;;1.25;;
38717;SDS011;24468;52.128;9.278;2022-10-16T06:55:04;1.40;;;1.30;;
38717;SDS011;24468;52.128;9.278;2022-10-16T06:57:30;3.83;;;1.20;;
38717;SDS011;24468;52.128;9.278;2022-10-16T06:59:56;1.77;;;0.85;;
38717;SDS011;24468;52.128;9.278;2022-10-16T07:02:21;2.33;;;1.15;;
38717;SDS011;24468;52.128;9.278;2022-10-16T07:04:47;4.22;;;1.63;;
38717;SDS011;24468;52.128;9.278;2022-10-16T07:07:13;2.70;;;1.50;;
38717;SDS011;24468;52.128;9.278;2022-10-16T07:09:38;4.63;;;0.90;;
38717;SDS011;24468;52.128;9.278;2022-10-16T07:12:05;5.20;;;0.90;;
38717;SDS011;24468;52.128;9.278;2022-10-16T07:14:30;1.08;;;0.82;;
38717;SDS011;24468;52.128;9.278;2022-10-16T07:16:56;3.42;;;1.02;;
38717;SDS011;24468;52.128;9.278;2022-10-16T07:19:22;7.15;;;0.85;;
38717;SDS011;24468;52.128;9.278;2022-10-16T07:21:47;2.05;;;0.70;;
38717;SDS011;24468;52.128;9.278;2022-10-16T07:24:13;3.92;;;0.93;;
38717;SDS011;24468;52.128;9.278;2022-10-16T07:26:41;0.60;;;0.60;;
38717;SDS011;24468;52.128;9.278;2022-10-16T07:29:16;0.93;;;0.65;;
38717;SDS011;24468;52.128;9.278;2022-10-16T07:31:45;1.20;;;0.60;;
38717;SDS011;24468;52.128;9.278;2022-10-16T07:34:12;0.90;;;0.50;;
38717;SDS011;24468;52.128;9.278;2022-10-16T07:36:39;0.57;;;0.57;;
38717;SDS011;24468;52.128;9.278;2022-10-16T07:39:04;0.75;;;0.45;;
38717;SDS011;24468;52.128;9.278;2022-10-16T07:41:30;1.77;;;0.55;;
38717;SDS011;24468;52.128;9.278;2022-10-16T07:43:57;1.27;;;0.57;;
38717;SDS011;24468;52.128;9.278;2022-10-16T07:46:25;3.40;;;0.60;;
38717;SDS011;24468;52.128;9.278;2022-10-16T07:48:51;3.95;;;0.70;;
38717;SDS011;24468;52.128;9.278;2022-10-16T07:51:18;2.15;;;0.60;;
38717;SDS011;24468;52.128;9.278;2022-10-16T07:53:46;0.65;;;0.65;;
38717;SDS011;24468;52.128;9.278;2022-10-16T07:56:13;0.63;;;0.50;;
38717;SDS011;24468;52.128;9.278;2022-10-16T07:58:39;2.55;;;0.73;;
38717;SDS011;24468;52.128;9.278;2022-10-16T08:01:06;1.58;;;0.47;;
38717;SDS011;24468;52.128;9.278;2022-10-16T08:03:34;2.25;;;0.80;;
38717;SDS011;24468;52.128;9.278;2022-10-16T08:06:00;1.13;;;0.73;;
38717;SDS011;24468;52.128;9.278;2022-10-16T08:08:26;1.27;;;0.60;;
38717;SDS011;24468;52.128;9.278;2022-10-16T08:10:52;0.75;;;0.50;;
38717;SDS011;24468;52.128;9.278;2022-10-16T08:13:18;1.60;;;0.77;;
38717;SDS011;24468;52.128;9.278;2022-10-16T08:15:44;1.88;;;0.70;;
38717;SDS011;24468;52.128;9.278;2022-10-16T08:18:11;2.28;;;0.88;;
38717;SDS011;24468;52.128;9.278;2022-10-16T08:20:39;2.03;;;0.73;;
38717;SDS011;24468;52.128;9.278;2022-10-16T08:23:06;0.55;;;0.50;;
38717;SDS011;24468;52.128;9.278;2022-10-16T08:25:35;2.65;;;0.75;;
38717;SDS011;24468;52.128;9.278;2022-10-16T08:28:03;1.15;;;0.68;;
38717;SDS011;24468;52.128;9.278;2022-10-16T08:30:30;2.83;;;0.73;;
38717;SDS011;24468;52.128;9.278;2022-10-16T08:32:56;4.43;;;0.73;;
38717;SDS011;24468;52.128;9.278;2022-10-16T08:35:23;2.30;;;0.70;;
38717;SDS011;24468;52.128;9.278;2022-10-16T08:37:48;1.50;;;0.73;;
38717;SDS011;24468;52.128;9.278;2022-10-16T08:40:19;1.70;;;0.70;;
38717;SDS011;24468;52.128;9.278;2022-10-16T08:45:58;2.00;;;0.80;;
38717;SDS011;24468;52.128;9.278;2022-10-16T08:48:56;1.60;;;0.60;;
38717;SDS011;24468;52.128;9.278;2022-10-16T08:51:24;1.50;;;0.55;;
38717;SDS011;24468;52.128;9.278;2022-10-16T08:53:58;1.42;;;0.70;;
38717;SDS011;24468;52.128;9.278;2022-10-16T08:58:57;0.57;;;0.50;;
38717;SDS011;24468;52.128;9.278;2022-10-16T09:01:25;0.65;;;0.50;;
38717;SDS011;24468;52.128;9.278;2022-10-16T09:07:20;0.85;;;0.55;;
38717;SDS011;24468;52.128;9.278;2022-10-16T09:13:16;2.70;;;1.13;;
38717;SDS011;24468;52.128;9.278;2022-10-16T09:18:47;2.40;;;0.70;;
38717;SDS011;24468;52.128;9.278;2022-10-16T09:21:35;1.23;;;0.55;;
38717;SDS011;24468;52.128;9.278;2022-10-16T09:24:10;2.60;;;0.68;;
38717;SDS011;24468;52.128;9.278;2022-10-16T09:26:43;1.05;;;0.70;;
38717;SDS011;24468;52.128;9.278;2022-10-16T09:29:16;2.67;;;0.68;;
38717;SDS011;24468;52.128;9.278;2022-10-16T09:31:49;3.15;;;1.10;;
38717;SDS011;24468;52.128;9.278;2022-10-16T09:34:30;3.70;;;1.00;;
38717;SDS011;24468;52.128;9.278;2022-10-16T09:37:04;2.40;;;1.00;;
38717;SDS011;24468;52.128;9.278;2022-10-16T09:39:43;2.45;;;0.60;;
38717;SDS011;24468;52.128;9.278;2022-10-16T09:44:55;6.95;;;0.93;;
38717;SDS011;24468;52.128;9.278;2022-10-16T09:47:29;3.53;;;0.60;;
38717;SDS011;24468;52.128;9.278;2022-10-16T09:49:57;3.20;;;0.82;;
38717;SDS011;24468;52.128;9.278;2022-10-16T09:52:27;1.20;;;0.70;;
38717;SDS011;24468;52.128;9.278;2022-10-16T09:54:58;1.45;;;0.60;;
38717;SDS011;24468;52.128;9.278;2022-10-16T09:57:48;2.72;;;0.93;;
38717;SDS011;24468;52.128;9.278;2022-10-16T10:00:17;0.88;;;0.50;;
38717;SDS011;24468;52.128;9.278;2022-10-16T10:02:44;2.30;;;0.63;;
38717;SDS011;24468;52.128;9.278;2022-10-16T10:05:20;1.88;;;0.60;;
38717;SDS011;24468;52.128;9.278;2022-10-16T10:07:56;1.25;;;0.77;;
38717;SDS011;24468;52.128;9.278;2022-10-16T10:10:32;3.77;;;1.27;;
38717;SDS011;24468;52.128;9.278;2022-10-16T10:13:20;3.45;;;1.20;;
38717;SDS011;24468;52.128;9.278;2022-10-16T10:15:49;2.88;;;0.77;;
38717;SDS011;24468;52.128;9.278;2022-10-16T10:18:16;2.80;;;0.93;;
38717;SDS011;24468;52.128;9.278;2022-10-16T10:20:45;4.07;;;1.33;;
38717;SDS011;24468;52.128;9.278;2022-10-16T10:23:29;2.47;;;0.60;;
38717;SDS011;24468;52.128;9.278;2022-10-16T10:26:11;1.27;;;0.38;;
38717;SDS011;24468;52.128;9.278;2022-10-16T10:31:51;2.13;;;0.50;;
38717;SDS011;24468;52.128;9.278;2022-10-16T10:46:19;0.52;;;0.38;;
38717;SDS011;24468;52.128;9.278;2022-10-16T10:49:10;0.70;;;0.40;;
38717;SDS011;24468;52.128;9.278;2022-10-16T10:51:51;2.63;;;0.60;;
38717;SDS011;24468;52.128;9.278;2022-10-16T10:54:48;3.53;;;0.57;;
38717;SDS011;24468;52.128;9.278;2022-10-16T11:00:51;0.80;;;0.30;;
38717;SDS011;24468;52.128;9.278;2022-10-16T11:09:27;2.85;;;0.90;;
38717;SDS011;24468;52.128;9.278;2022-10-16T11:14:58;2.33;;;0.75;;
38717;SDS011;24468;52.128;9.278;2022-10-16T11:17:50;2.25;;;0.70;;
38717;SDS011;24468;52.128;9.278;2022-10-16T11:20:28;1.98;;;0.50;;
38717;SDS011;24468;52.128;9.278;2022-10-16T11:23:05;1.52;;;0.35;;
38717;SDS011;24468;52.128;9.278;2022-10-16T11:28:15;1.15;;;0.30;;
38717;SDS011;24468;52.128;9.278;2022-10-16T11:31:11;2.22;;;0.60;;
38717;SDS011;24468;52.128;9.278;2022-10-16T11:33:46;0.63;;;0.30;;
38717;SDS011;24468;52.128;9.278;2022-10-16T11:36:31;0.82;;;0.60;;
38717;SDS011;24468;52.128;9.278;2022-10-16T11:39:16;1.55;;;0.45;;
38717;SDS011;24468;52.128;9.278;2022-10-16T11:44:53;4.20;;;0.30;;
38717;SDS011;24468;52.128;9.278;2022-10-16T11:50:42;2.13;;;0.35;;
38717;SDS011;24468;52.128;9.278;2022-10-16T11:56:18;1.20;;;0.20;;
38717;SDS011;24468;52.128;9.278;2022-10-16T11:59:02;1.52;;;0.40;;
38717;SDS011;24468;52.128;9.278;2022-10-16T12:06:58;0.60;;;0.20;;
38717;SDS011;24468;52.128;9.278;2022-10-16T12:09:37;1.48;;;0.43;;
38717;SDS011;24468;52.128;9.278;2022-10-16T12:15:44;2.15;;;0.75;;
38717;SDS011;24468;52.128;9.278;2022-10-16T12:17:58;0.75;;;0.60;;
38717;SDS011;24468;52.128;9.278;2022-10-16T12:20:26;1.98;;;0.50;;
38717;SDS011;24468;52.128;9.278;2022-10-16T12:23:01;1.08;;;0.40;;
38717;SDS011;24468;52.128;9.278;2022-10-16T12:25:31;4.65;;;1.52;;
38717;SDS011;24468;52.128;9.278;2022-10-16T12:28:07;0.93;;;0.32;;
38717;SDS011;24468;52.128;9.278;2022-10-16T12:30:52;2.65;;;0.55;;
38717;SDS011;24468;52.128;9.278;2022-10-16T12:33:39;2.80;;;0.60;;
38717;SDS011;24468;52.128;9.278;2022-10-16T12:36:30;2.67;;;0.50;;
38717;SDS011;24468;52.128;9.278;2022-10-16T12:38:59;0.65;;;0.32;;
38717;SDS011;24468;52.128;9.278;2022-10-16T12:41:30;2.00;;;0.55;;
38717;SDS011;24468;52.128;9.278;2022-10-16T12:43:59;3.88;;;0.50;;
38717;SDS011;24468;52.128;9.278;2022-10-16T12:51:56;1.25;;;0.40;;
38717;SDS011;24468;52.128;9.278;2022-10-16T12:54:25;2.35;;;0.57;;
38717;SDS011;24468;52.128;9.278;2022-10-16T13:04:22;0.60;;;0.38;;
38717;SDS011;24468;52.128;9.278;2022-10-16T13:06:41;2.40;;;0.40;;
38717;SDS011;24468;52.128;9.278;2022-10-16T13:12:17;3.28;;;0.60;;
38717;SDS011;24468;52.128;9.278;2022-10-16T13:15:19;3.53;;;0.73;;
38717;SDS011;24468;52.128;9.278;2022-10-16T13:18:13;1.48;;;0.73;;
38717;SDS011;24468;52.128;9.278;2022-10-16T13:20:51;4.25;;;0.40;;
38717;SDS011;24468;52.128;9.278;2022-10-16T13:29:18;3.40;;;0.77;;
38717;SDS011;24468;52.128;9.278;2022-10-16T13:31:45;1.88;;;0.50;;
38717;SDS011;24468;52.128;9.278;2022-10-16T13:34:12;3.53;;;0.50;;
38717;SDS011;24468;52.128;9.278;2022-10-16T13:36:49;2.92;;;0.63;;
38717;SDS011;24468;52.128;9.278;2022-10-16T13:42:04;0.80;;;0.50;;
38717;SDS011;24468;52.128;9.278;2022-10-16T13:44:48;1.63;;;0.45;;
38717;SDS011;24468;52.128;9.278;2022-10-16T13:47:17;0.95;;;0.50;;
38717;SDS011;24468;52.128;9.278;2022-10-16T13:49:46;1.48;;;0.65;;
38717;SDS011;24468;52.128;9.278;2022-10-16T13:52:27;1.40;;;0.55;;
38717;SDS011;24468;52.128;9.278;2022-10-16T13:54:53;2.58;;;0.40;;
38717;SDS011;24468;52.128;9.278;2022-10-16T13:57:21;3.22;;;0.40;;
38717;SDS011;24468;52.128;9.278;2022-10-16T13:59:49;2.63;;;0.60;;
38717;SDS011;24468;52.128;9.278;2022-10-16T14:05:00;3.60;;;0.65;;
38717;SDS011;24468;52.128;9.278;2022-10-16T14:07:29;2.08;;;0.30;;
38717;SDS011;24468;52.128;9.278;2022-10-16T14:10:03;1.48;;;0.40;;
38717;SDS011;24468;52.128;9.278;2022-10-16T14:12:31;1.20;;;0.40;;
38717;SDS011;24468;52.128;9.278;2022-10-16T14:14:57;1.42;;;0.40;;
38717;SDS011;24468;52.128;9.278;2022-10-16T14:17:25;1.45;;;0.50;;
38717;SDS011;24468;52.128;9.278;2022-10-16T14:19:58;2.90;;;0.50;;
38717;SDS011;24468;52.128;9.278;2022-10-16T14:22:31;0.82;;;0.22;;
38717;SDS011;24468;52.128;9.278;2022-10-16T14:24:57;2.53;;;0.75;;
38717;SDS011;24468;52.128;9.278;2022-10-16T14:27:34;1.92;;;0.80;;
38717;SDS011;24468;52.128;9.278;2022-10-16T14:32:36;0.65;;;0.30;;
38717;SDS011;24468;52.128;9.278;2022-10-16T14:35:01;1.60;;;0.60;;
38717;SDS011;24468;52.128;9.278;2022-10-16T14:37:28;1.98;;;0.50;;
38717;SDS011;24468;52.128;9.278;2022-10-16T14:39:55;2.10;;;0.98;;
38717;SDS011;24468;52.128;9.278;2022-10-16T14:42:22;2.65;;;0.50;;
38717;SDS011;24468;52.128;9.278;2022-10-16T14:44:50;1.13;;;0.40;;
38717;SDS011;24468;52.128;9.278;2022-10-16T14:47:23;1.13;;;0.50;;
38717;SDS011;24468;52.128;9.278;2022-10-16T14:49:51;1.42;;;0.40;;
38717;SDS011;24468;52.128;9.278;2022-10-16T14:52:23;2.28;;;0.57;;
38717;SDS011;24468;52.128;9.278;2022-10-16T14:54:49;1.83;;;0.80;;
38717;SDS011;24468;52.128;9.278;2022-10-16T14:57:17;3.30;;;1.02;;
38717;SDS011;24468;52.128;9.278;2022-10-16T14:59:46;5.72;;;0.70;;
38717;SDS011;24468;52.128;9.278;2022-10-16T15:02:32;3.33;;;0.77;;
38717;SDS011;24468;52.128;9.278;2022-10-16T15:05:16;1.88;;;0.40;;
38717;SDS011;24468;52.128;9.278;2022-10-16T15:07:51;1.58;;;0.45;;
38717;SDS011;24468;52.128;9.278;2022-10-16T15:10:18;1.30;;;0.50;;
38717;SDS011;24468;52.128;9.278;2022-10-16T15:12:49;1.85;;;0.52;;
38717;SDS011;24468;52.128;9.278;2022-10-16T15:18:17;2.70;;;0.40;;
38717;SDS011;24468;52.128;9.278;2022-10-16T15:20:49;0.68;;;0.40;;
38717;SDS011;24468;52.128;9.278;2022-10-16T15:23:20;1.90;;;0.40;;
38717;SDS011;24468;52.128;9.278;2022-10-16T15:25:48;2.97;;;0.60;;
38717;SDS011;24468;52.128;9.278;2022-10-16T15:28:19;1.38;;;0.30;;
38717;SDS011;24468;52.128;9.278;2022-10-16T15:30:46;1.42;;;0.20;;
38717;SDS011;24468;52.128;9.278;2022-10-16T15:33:16;1.30;;;0.60;;
38717;SDS011;24468;52.128;9.278;2022-10-16T15:35:47;2.08;;;0.38;;
38717;SDS011;24468;52.128;9.278;2022-10-16T15:38:15;1.83;;;0.80;;
38717;SDS011;24468;52.128;9.278;2022-10-16T15:40:41;2.05;;;0.65;;
38717;SDS011;24468;52.128;9.278;2022-10-16T15:43:07;6.97;;;0.77;;
38717;SDS011;24468;52.128;9.278;2022-10-16T15:45:34;0.57;;;0.40;;
38717;SDS011;24468;52.128;9.278;2022-10-16T15:48:00;2.20;;;0.60;;
38717;SDS011;24468;52.128;9.278;2022-10-16T15:50:25;3.67;;;1.13;;
38717;SDS011;24468;52.128;9.278;2022-10-16T15:52:51;1.02;;;0.40;;
38717;SDS011;24468;52.128;9.278;2022-10-16T15:55:17;1.33;;;0.30;;
38717;SDS011;24468;52.128;9.278;2022-10-16T15:57:43;0.47;;;0.38;;
38717;SDS011;24468;52.128;9.278;2022-10-16T16:00:12;3.78;;;0.88;;
38717;SDS011;24468;52.128;9.278;2022-10-16T16:02:41;3.42;;;0.93;;
38717;SDS011;24468;52.128;9.278;2022-10-16T16:05:08;3.13;;;1.20;;
38717;SDS011;24468;52.128;9.278;2022-10-16T16:07:35;1.83;;;0.70;;
38717;SDS011;24468;52.128;9.278;2022-10-16T16:10:03;4.13;;;1.00;;
38717;SDS011;24468;52.128;9.278;2022-10-16T16:12:31;3.88;;;1.40;;
38717;SDS011;24468;52.128;9.278;2022-10-16T16:14:58;2.83;;;1.73;;
38717;SDS011;24468;52.128;9.278;2022-10-16T16:17:23;6.95;;;1.63;;
38717;SDS011;24468;52.128;9.278;2022-10-16T16:19:49;3.50;;;1.60;;
38717;SDS011;24468;52.128;9.278;2022-10-16T16:22:15;6.97;;;2.35;;
38717;SDS011;24468;52.128;9.278;2022-10-16T16:24:41;6.07;;;2.17;;
38717;SDS011;24468;52.128;9.278;2022-10-16T16:27:07;7.25;;;2.58;;
38717;SDS011;24468;52.128;9.278;2022-10-16T16:29:33;4.38;;;2.17;;
38717;SDS011;24468;52.128;9.278;2022-10-16T16:31:59;3.22;;;2.65;;
38717;SDS011;24468;52.128;9.278;2022-10-16T16:34:26;6.32;;;3.50;;
38717;SDS011;24468;52.128;9.278;2022-10-16T16:36:53;8.77;;;3.88;;
38717;SDS011;24468;52.128;9.278;2022-10-16T16:39:19;7.45;;;3.45;;
38717;SDS011;24468;52.128;9.278;2022-10-16T16:41:45;4.70;;;2.60;;
38717;SDS011;24468;52.128;9.278;2022-10-16T16:44:11;3.08;;;1.33;;
38717;SDS011;24468;52.128;9.278;2022-10-16T16:46:37;4.18;;;0.88;;
38717;SDS011;24468;52.128;9.278;2022-10-16T16:49:04;3.00;;;0.80;;
38717;SDS011;24468;52.128;9.278;2022-10-16T16:51:31;1.30;;;0.70;;
38717;SDS011;24468;52.128;9.278;2022-10-16T16:53:58;4.88;;;1.00;;
38717;SDS011;24468;52.128;9.278;2022-10-16T16:56:25;4.35;;;1.10;;
38717;SDS011;24468;52.128;9.278;2022-10-16T16:58:52;2.47;;;1.52;;